createdAt,value
2018-04-19T00:00:38.989Z,31.93
2018-04-19T00:03:07.295Z,33.30
2018-04-19T00:05:36.374Z,31.73
2018-04-19T00:08:04.849Z,36.80
2018-04-19T00:10:33.922Z,36.07
2018-04-19T00:13:03.006Z,39.10
2018-04-19T00:15:31.348Z,31.97
2018-04-19T00:17:59.674Z,34.43
2018-04-19T00:20:28.767Z,33.93
2018-04-19T00:22:57.092Z,39.43
2018-04-19T00:25:25.431Z,32.90
2018-04-19T00:27:53.747Z,35.57
2018-04-19T00:30:22.064Z,37.47
2018-04-19T00:32:50.400Z,37.27
2018-04-19T00:35:19.485Z,38.67
2018-04-19T00:37:47.810Z,35.77
2018-04-19T00:40:16.134Z,37.23
2018-04-19T00:42:44.458Z,40.57
2018-04-19T00:45:12.794Z,37.03
2018-04-19T00:47:41.152Z,39.20
2018-04-19T00:50:09.473Z,42.30
2018-04-19T00:55:44.500Z,39.03
2018-04-19T00:58:13.131Z,37.47
2018-04-19T01:00:41.472Z,40.37
2018-04-19T01:03:09.808Z,40.13
2018-04-19T01:05:38.123Z,37.77
2018-04-19T01:08:06.436Z,37.33
2018-04-19T01:10:35.578Z,43.03
2018-04-19T01:13:03.925Z,43.90
2018-04-19T01:15:33.040Z,44.73
2018-04-19T01:18:01.361Z,42.63
2018-04-19T01:20:29.697Z,45.80
2018-04-19T01:22:59.670Z,42.23
2018-04-19T01:25:28.012Z,38.50
2018-04-19T01:27:56.328Z,45.10
2018-04-19T01:30:24.648Z,45.93
2018-04-19T01:32:53.712Z,46.57
2018-04-19T01:35:39.721Z,43.57
2018-04-19T01:38:08.062Z,46.43
2018-04-19T01:40:36.386Z,45.20
2018-04-19T01:43:04.726Z,45.47
2018-04-19T01:45:33.780Z,43.20
2018-04-19T01:48:02.886Z,43.23
2018-04-19T01:50:31.343Z,46.37
2018-04-19T01:52:59.658Z,44.70
2018-04-19T01:55:27.972Z,44.53
2018-04-19T01:57:56.488Z,44.57
2018-04-19T02:00:24.808Z,44.97
2018-04-19T02:02:53.126Z,42.57
2018-04-19T02:05:21.470Z,44.60
2018-04-19T02:07:50.592Z,46.07
2018-04-19T02:10:18.906Z,44.47
2018-04-19T02:12:47.221Z,46.13
2018-04-19T02:15:16.298Z,45.77
2018-04-19T02:17:45.396Z,44.90
2018-04-19T02:20:13.710Z,42.07
2018-04-19T02:22:42.038Z,44.00
2018-04-19T02:25:10.362Z,46.30
2018-04-19T02:27:39.467Z,49.10
2018-04-19T02:30:08.548Z,42.73
2018-04-19T02:32:36.872Z,45.63
2018-04-19T02:35:05.218Z,45.23
2018-04-19T02:37:34.319Z,43.67
2018-04-19T02:40:03.606Z,45.00
2018-04-19T02:42:31.941Z,48.93
2018-04-19T02:45:00.255Z,44.00
2018-04-19T02:47:28.562Z,50.67
2018-04-19T02:49:57.647Z,40.77
2018-04-19T02:52:25.980Z,47.17
2018-04-19T02:54:54.290Z,51.33
2018-04-19T02:57:22.632Z,46.60
2018-04-19T02:59:50.929Z,46.77
2018-04-19T03:02:19.265Z,52.57
2018-04-19T03:04:47.585Z,48.17
2018-04-19T03:07:15.914Z,52.97
2018-04-19T03:09:44.378Z,50.17
2018-04-19T03:12:12.696Z,48.70
2018-04-19T03:14:41.787Z,48.60
2018-04-19T03:17:10.877Z,46.23
2018-04-19T03:19:39.231Z,49.60
2018-04-19T03:22:07.563Z,47.63
2018-04-19T03:24:36.663Z,48.97
2018-04-19T03:27:05.765Z,54.03
2018-04-19T03:29:34.867Z,54.10
2018-04-19T03:32:03.966Z,59.40
2018-04-19T03:34:33.131Z,56.27
2018-04-19T03:37:01.479Z,55.83
2018-04-19T03:39:29.800Z,53.87
2018-04-19T03:41:58.141Z,45.77
2018-04-19T03:44:26.629Z,49.30
2018-04-19T03:46:55.031Z,53.20
2018-04-19T03:49:23.411Z,54.83
2018-04-19T03:51:51.757Z,49.43
2018-04-19T03:54:20.089Z,49.60
2018-04-19T03:56:48.443Z,54.30
2018-04-19T03:59:16.777Z,46.47
2018-04-19T04:01:45.103Z,47.97
2018-04-19T04:04:13.597Z,52.43
2018-04-19T04:06:41.989Z,51.80
2018-04-19T04:09:10.318Z,53.63
2018-04-19T04:11:39.432Z,50.57
2018-04-19T04:14:08.491Z,60.33
2018-04-19T04:30:19.853Z,55.03
2018-04-19T04:32:48.175Z,57.83
2018-04-19T04:35:16.515Z,62.60
2018-04-19T04:37:45.761Z,61.00
2018-04-19T04:40:14.115Z,62.10
2018-04-19T04:42:43.205Z,54.70
2018-04-19T04:45:12.299Z,59.20
2018-04-19T04:47:41.391Z,56.13
2018-04-19T04:50:09.724Z,51.33
2018-04-19T04:52:38.053Z,53.07
2018-04-19T04:55:06.375Z,56.77
2018-04-19T04:57:34.747Z,52.83
2018-04-19T05:00:03.059Z,57.00
2018-04-19T05:02:31.397Z,50.17
2018-04-19T05:05:00.507Z,53.37
2018-04-19T05:07:28.815Z,61.60
2018-04-19T05:09:57.143Z,52.07
2018-04-19T05:12:25.485Z,52.10
2018-04-19T05:14:53.799Z,49.43
2018-04-19T05:17:22.141Z,54.40
2018-04-19T05:19:50.465Z,55.30
2018-04-19T05:22:18.835Z,49.20
2018-04-19T05:24:47.173Z,52.03
2018-04-19T05:27:15.504Z,46.07
2018-04-19T05:29:43.803Z,46.57
2018-04-19T05:32:12.115Z,43.47
2018-04-19T05:34:40.469Z,53.97
2018-04-19T05:37:09.575Z,53.73
2018-04-19T05:39:39.035Z,45.77
2018-04-19T05:42:07.360Z,45.80
2018-04-19T05:44:36.521Z,49.90
2018-04-19T05:47:04.847Z,42.40
2018-04-19T05:49:33.941Z,40.10
2018-04-19T05:52:03.013Z,43.80
2018-04-19T05:54:31.387Z,44.97
2018-04-19T05:56:59.695Z,39.97
2018-04-19T05:59:28.021Z,41.70
2018-04-19T06:01:56.337Z,37.43
2018-04-19T06:04:24.656Z,37.00
2018-04-19T06:06:53.797Z,35.03
2018-04-19T06:09:22.187Z,36.73
2018-04-19T06:11:50.624Z,37.87
2018-04-19T06:14:19.724Z,42.27
2018-04-19T06:16:48.054Z,39.83
2018-04-19T06:19:17.662Z,33.90
2018-04-19T06:21:45.985Z,33.90
2018-04-19T06:24:15.166Z,33.50
2018-04-19T06:26:43.491Z,33.13
2018-04-19T06:29:11.824Z,31.87
2018-04-19T06:31:40.169Z,31.70
2018-04-19T06:34:08.557Z,33.57
2018-04-19T06:36:36.874Z,36.70
2018-04-19T06:39:06.858Z,31.27
2018-04-19T06:41:35.220Z,34.10
2018-04-19T06:44:03.624Z,29.63
2018-04-19T06:46:31.959Z,27.63
2018-04-19T06:49:00.283Z,31.67
2018-04-19T06:51:28.594Z,28.23
2018-04-19T06:53:56.908Z,29.03
2018-04-19T06:56:25.998Z,24.53
2018-04-19T06:58:54.316Z,25.67
2018-04-19T07:01:22.622Z,23.87
2018-04-19T07:03:50.943Z,24.80
2018-04-19T07:06:19.270Z,25.00
2018-04-19T07:08:47.599Z,26.57
2018-04-19T07:11:15.953Z,22.30
2018-04-19T07:13:44.273Z,24.47
2018-04-19T07:16:12.596Z,21.50
2018-04-19T07:18:41.016Z,22.93
2018-04-19T07:21:09.365Z,22.40
2018-04-19T07:23:37.693Z,23.63
2018-04-19T07:26:06.053Z,19.80
2018-04-19T07:28:34.361Z,19.10
2018-04-19T07:31:02.696Z,19.53
2018-04-19T07:33:31.004Z,20.93
2018-04-19T07:35:59.329Z,19.93
2018-04-19T07:38:28.412Z,17.13
2018-04-19T07:40:56.752Z,21.03
2018-04-19T07:43:25.073Z,19.50
2018-04-19T07:45:53.398Z,19.50
2018-04-19T07:48:21.718Z,19.07
2018-04-19T07:50:50.043Z,18.47
2018-04-19T07:53:19.140Z,18.70
2018-04-19T07:55:48.236Z,18.50
2018-04-19T07:58:17.324Z,17.90
2018-04-19T08:00:45.656Z,17.93
2018-04-19T08:03:13.973Z,18.50
2018-04-19T08:05:43.075Z,17.40
2018-04-19T08:08:11.403Z,16.80
2018-04-19T08:10:39.800Z,19.57
2018-04-19T08:13:08.121Z,17.03
2018-04-19T08:15:36.456Z,17.60
2018-04-19T08:18:05.442Z,17.90
2018-04-19T08:20:33.779Z,16.90
2018-04-19T08:23:02.101Z,15.63
2018-04-19T08:25:30.435Z,19.77
2018-04-19T08:27:59.578Z,16.80
2018-04-19T08:30:28.070Z,15.57
2018-04-19T08:32:56.516Z,16.43
2018-04-19T08:35:24.868Z,16.27
2018-04-19T08:37:53.202Z,16.90
2018-04-19T08:40:22.306Z,14.33
2018-04-19T08:42:51.399Z,14.70
2018-04-19T08:45:20.494Z,13.87
2018-04-19T08:47:48.835Z,11.70
2018-04-19T08:50:17.187Z,13.07
2018-04-19T08:52:45.502Z,12.03
2018-04-19T08:55:13.834Z,12.53
2018-04-19T08:57:42.960Z,10.90
2018-04-19T09:00:11.278Z,10.60
2018-04-19T09:02:39.592Z,11.03
2018-04-19T09:05:08.672Z,10.60
2018-04-19T09:07:37.761Z,12.07
2018-04-19T09:10:06.080Z,10.17
2018-04-19T09:12:35.237Z,10.77
2018-04-19T09:15:03.543Z,10.83
2018-04-19T09:17:31.862Z,10.67
2018-04-19T09:20:00.195Z,11.17
2018-04-19T09:22:28.507Z,11.20
2018-04-19T09:24:57.578Z,11.70
2018-04-19T09:27:25.906Z,9.80
2018-04-19T09:29:54.241Z,12.00
2018-04-19T09:32:22.577Z,12.60
2018-04-19T09:34:50.898Z,10.00
2018-04-19T09:37:19.219Z,12.03
2018-04-19T09:39:47.582Z,11.50
2018-04-19T09:42:15.942Z,10.90
2018-04-19T09:44:44.269Z,11.60
2018-04-19T09:47:12.590Z,12.70
2018-04-19T09:49:40.932Z,12.37
2018-04-19T09:52:10.021Z,11.30
2018-04-19T09:54:39.173Z,12.23
2018-04-19T09:57:07.651Z,11.27
2018-04-19T09:59:35.993Z,12.30
2018-04-19T10:02:05.066Z,11.50
2018-04-19T10:04:34.200Z,13.50
2018-04-19T10:07:02.523Z,12.30
2018-04-19T10:09:30.828Z,10.90
2018-04-19T10:11:59.165Z,11.47
2018-04-19T10:14:27.483Z,10.90
2018-04-19T10:16:55.792Z,12.93
2018-04-19T10:19:24.896Z,12.43
2018-04-19T10:21:53.992Z,11.87
2018-04-19T10:24:23.079Z,12.13
2018-04-19T10:26:52.196Z,11.57
2018-04-19T10:29:21.320Z,13.03
2018-04-19T10:31:50.453Z,11.87
2018-04-19T10:34:18.801Z,12.67
2018-04-19T10:36:47.130Z,15.07
2018-04-19T10:39:15.462Z,13.63
2018-04-19T10:41:43.788Z,13.23
2018-04-19T10:44:12.115Z,13.93
2018-04-19T10:46:41.211Z,13.30
2018-04-19T10:49:10.323Z,14.17
2018-04-19T10:51:38.628Z,15.03
2018-04-19T10:54:07.034Z,14.13
2018-04-19T10:56:35.528Z,15.23
2018-04-19T10:59:03.838Z,13.30
2018-04-19T11:01:32.914Z,14.97
2018-04-19T11:04:02.741Z,16.57
2018-04-19T11:06:31.078Z,16.50
2018-04-19T11:08:59.508Z,15.97
2018-04-19T11:11:27.819Z,17.80
2018-04-19T11:13:56.169Z,15.80
2018-04-19T11:16:24.999Z,16.90
2018-04-19T11:18:53.360Z,17.83
2018-04-19T11:21:22.458Z,17.80
2018-04-19T11:23:51.585Z,17.27
2018-04-19T11:26:19.950Z,16.23
2018-04-19T11:28:48.267Z,16.03
2018-04-19T11:31:16.610Z,15.77
2018-04-19T11:33:45.729Z,17.10
2018-04-19T11:36:14.048Z,16.47
2018-04-19T11:38:42.452Z,16.20
2018-04-19T11:41:10.825Z,16.43
2018-04-19T11:43:39.376Z,16.17
2018-04-19T11:46:07.686Z,17.90
2018-04-19T11:48:36.080Z,18.27
2018-04-19T11:51:04.428Z,14.83
2018-04-19T11:53:32.734Z,14.27
2018-04-19T11:56:01.223Z,14.00
2018-04-19T11:58:30.100Z,14.87
2018-04-19T12:00:58.466Z,14.65
2018-04-19T12:03:26.797Z,13.40
2018-04-19T12:05:55.123Z,14.25
2018-04-19T12:08:23.458Z,13.80
2018-04-19T12:10:51.788Z,13.98
2018-04-19T12:13:20.106Z,13.57
2018-04-19T12:15:48.428Z,10.55
2018-04-19T12:18:16.780Z,11.10
2018-04-19T12:20:45.855Z,11.23
2018-04-19T12:23:14.198Z,12.45
2018-04-19T12:25:42.528Z,11.50
2018-04-19T12:28:10.870Z,12.45
2018-04-19T12:30:39.182Z,11.68
2018-04-19T12:33:08.275Z,14.95
2018-04-19T12:35:36.670Z,13.57
2018-04-19T12:38:05.054Z,13.95
2018-04-19T12:40:33.364Z,16.48
2018-04-19T12:43:01.679Z,18.52
2018-04-19T12:45:30.075Z,19.85
2018-04-19T12:47:58.370Z,21.92
2018-04-19T12:50:26.682Z,19.85
2018-04-19T12:52:54.986Z,21.15
2018-04-19T12:55:24.060Z,19.85
2018-04-19T12:57:52.370Z,19.20
2018-04-19T13:00:21.448Z,19.92
2018-04-19T13:02:50.468Z,20.45
2018-04-19T13:05:19.560Z,20.80
2018-04-19T13:07:48.686Z,22.45
2018-04-19T13:10:17.059Z,22.27
2018-04-19T13:12:45.565Z,23.40
2018-04-19T13:15:13.920Z,24.92
2018-04-19T13:17:43.008Z,27.65
2018-04-19T13:20:12.093Z,31.27
2018-04-19T13:22:40.405Z,33.95
2018-04-19T13:25:08.720Z,34.47
2018-04-19T13:27:37.059Z,36.75
2018-04-19T13:30:07.761Z,37.75
2018-04-19T13:32:36.090Z,37.30
2018-04-19T13:35:04.429Z,35.17
2018-04-19T13:37:32.807Z,33.67
2018-04-19T13:40:01.126Z,36.00
2018-04-19T13:42:30.235Z,35.88
2018-04-19T13:44:58.561Z,36.78
2018-04-19T13:47:27.664Z,34.55
2018-04-19T13:49:55.968Z,34.58
2018-04-19T13:52:24.276Z,36.42
2018-04-19T13:54:53.352Z,38.38
2018-04-19T13:57:22.469Z,41.25
2018-04-19T13:59:51.573Z,42.15
2018-04-19T14:02:19.895Z,40.25
2018-04-19T14:04:48.228Z,41.03
2018-04-19T14:07:17.335Z,39.72
2018-04-19T14:09:45.686Z,41.88
2018-04-19T14:12:14.029Z,39.00
2018-04-19T14:14:42.361Z,43.30
2018-04-19T14:17:10.684Z,41.17
2018-04-19T14:19:38.986Z,44.85
2018-04-19T14:22:07.315Z,40.22
2018-04-19T14:24:36.407Z,42.42
2018-04-19T14:27:04.729Z,43.10
2018-04-19T14:29:41.924Z,40.85
2018-04-19T14:32:11.162Z,39.25
2018-04-19T14:34:43.450Z,34.53
2018-04-19T14:37:12.578Z,33.92
2018-04-19T14:39:41.352Z,32.63
2018-04-19T14:42:10.478Z,32.08
2018-04-19T14:44:38.802Z,31.92
2018-04-19T14:47:07.210Z,28.38
2018-04-19T14:49:35.769Z,27.17
2018-04-19T14:52:04.122Z,29.98
2018-04-19T14:54:32.632Z,26.60
2018-04-19T14:57:00.956Z,21.10
2018-04-19T14:59:30.056Z,19.52
2018-04-19T15:01:59.133Z,19.12
2018-04-19T15:04:27.479Z,17.62
2018-04-19T15:06:55.790Z,18.23
2018-04-19T15:09:24.162Z,19.80
2018-04-19T15:11:52.463Z,16.98
2018-04-19T15:14:20.865Z,18.52
2018-04-19T15:16:50.003Z,18.33
2018-04-19T15:19:18.337Z,17.33
2018-04-19T15:21:46.648Z,16.60
2018-04-19T15:24:14.973Z,14.10
2018-04-19T15:26:44.126Z,14.00
2018-04-19T15:29:12.481Z,16.83
2018-04-19T15:31:40.865Z,15.90
2018-04-19T15:34:09.223Z,16.92
2018-04-19T15:36:37.561Z,16.62
2018-04-19T15:39:06.726Z,15.25
2018-04-19T15:41:35.059Z,16.55
2018-04-19T15:44:03.387Z,14.87
2018-04-19T15:46:31.718Z,17.95
2018-04-19T15:49:00.023Z,14.98
2018-04-19T15:51:28.455Z,12.85
2018-04-19T15:53:57.596Z,11.43
2018-04-19T15:56:25.910Z,9.68
2018-04-19T15:58:54.303Z,8.23
2018-04-19T16:01:22.645Z,8.52
2018-04-19T16:03:51.001Z,8.35
2018-04-19T16:06:19.335Z,8.02
2018-04-19T16:08:47.800Z,6.87
2018-04-19T16:11:16.145Z,6.37
2018-04-19T16:13:44.438Z,7.10
2018-04-19T16:16:12.776Z,6.72
2018-04-19T16:18:41.106Z,6.75
2018-04-19T16:21:09.422Z,7.93
2018-04-19T16:23:37.728Z,7.70
2018-04-19T16:26:06.074Z,9.15
2018-04-19T16:28:34.394Z,7.65
2018-04-19T16:31:02.721Z,8.60
2018-04-19T16:33:31.179Z,8.65
2018-04-19T16:35:59.602Z,8.82
2018-04-19T16:38:27.933Z,9.23
2018-04-19T16:40:56.544Z,9.77
2018-04-19T16:43:24.871Z,9.40
2018-04-19T16:45:53.197Z,9.43
2018-04-19T16:48:22.337Z,10.15
2018-04-19T16:50:50.674Z,10.35
2018-04-19T16:53:20.042Z,9.20
2018-04-19T16:56:00.968Z,9.30
2018-04-19T16:58:30.349Z,7.70
2018-04-19T17:00:59.432Z,7.53
2018-04-19T17:03:27.790Z,7.72
2018-04-19T17:05:56.311Z,7.60
2018-04-19T17:08:24.638Z,7.70
2018-04-19T17:10:53.459Z,6.87
2018-04-19T17:13:22.022Z,6.70
2018-04-19T17:15:50.460Z,7.30
2018-04-19T17:18:18.889Z,7.60
2018-04-19T17:20:47.650Z,7.90
2018-04-19T17:23:16.007Z,9.23
2018-04-19T17:25:44.318Z,7.90
2018-04-19T17:28:13.392Z,5.17
2018-04-19T17:30:41.699Z,6.63
2018-04-19T17:33:10.769Z,7.73
2018-04-19T17:35:39.137Z,5.33
2018-04-19T17:38:07.462Z,5.83
2018-04-19T17:40:36.562Z,6.00
2018-04-19T17:43:05.672Z,8.73
2018-04-19T17:45:33.977Z,5.90
2018-04-19T17:48:02.340Z,7.60
2018-04-19T17:50:30.703Z,6.67
2018-04-19T17:52:59.897Z,5.07
2018-04-19T17:55:29.427Z,5.90
2018-04-19T17:57:57.984Z,7.63
2018-04-19T18:00:27.252Z,5.20
2018-04-19T18:02:56.465Z,5.40
2018-04-19T18:05:24.791Z,5.73
2018-04-19T18:07:53.880Z,5.87
2018-04-19T18:10:22.442Z,6.87
2018-04-19T18:12:52.712Z,7.30
2018-04-19T18:15:21.809Z,5.30
2018-04-19T18:17:50.913Z,5.70
2018-04-19T18:20:20.273Z,9.63
2018-04-19T18:22:49.246Z,9.33
2018-04-19T18:25:17.633Z,8.00
2018-04-19T18:27:46.074Z,5.63
2018-04-19T18:30:15.295Z,8.13
2018-04-19T18:32:43.652Z,6.33
2018-04-19T18:35:11.957Z,5.80
2018-04-19T18:37:40.267Z,49.53
2018-04-19T18:40:08.609Z,51.00
2018-04-19T18:42:38.377Z,50.80
2018-04-19T18:45:06.861Z,51.87
2018-04-19T18:47:35.204Z,49.23
2018-04-19T18:50:03.521Z,53.30
2018-04-19T18:52:31.858Z,51.00
2018-04-19T18:55:00.983Z,52.87
2018-04-19T18:57:29.859Z,56.40
2018-04-19T18:59:58.238Z,61.83
2018-04-19T19:02:31.672Z,59.10
2018-04-19T19:05:00.231Z,68.03
2018-04-19T19:07:30.674Z,66.80
2018-04-19T19:10:00.754Z,68.60
2018-04-19T19:12:35.029Z,66.37
2018-04-19T19:18:52.068Z,63.53
2018-04-19T19:21:20.632Z,61.90
2018-04-19T19:23:49.022Z,68.30
2018-04-19T19:26:18.120Z,69.70
2018-04-19T19:28:46.489Z,68.47
2018-04-19T19:31:14.995Z,65.53
2018-04-19T19:33:43.330Z,67.15
2018-04-19T19:36:11.635Z,67.47
2018-04-19T19:38:39.969Z,66.43
2018-04-19T19:41:09.050Z,65.70
2018-04-19T19:43:37.369Z,63.93
2018-04-19T19:46:05.709Z,65.43
2018-04-19T19:48:34.018Z,66.83
2018-04-19T19:51:02.330Z,68.37
2018-04-19T19:53:30.647Z,70.27
2018-04-19T19:55:58.980Z,71.90
2018-04-19T19:58:27.309Z,71.67
2018-04-19T20:00:55.649Z,73.90
2018-04-19T20:03:23.991Z,74.80
2018-04-19T20:05:53.076Z,82.30
2018-04-19T20:08:21.640Z,81.50
2018-04-19T20:10:49.961Z,76.50
2018-04-19T20:13:19.072Z,73.70
2018-04-19T20:15:48.151Z,78.23
2018-04-19T20:18:17.244Z,67.90
2018-04-19T20:20:45.624Z,68.53
2018-04-19T20:23:13.951Z,63.93
2018-04-19T20:25:42.280Z,66.30
2018-04-19T20:28:11.394Z,65.50
2018-04-19T20:30:39.764Z,72.37
2018-04-19T20:33:08.084Z,69.63
2018-04-19T20:35:36.415Z,72.53
2018-04-19T20:38:04.735Z,70.00
2018-04-19T20:40:33.900Z,54.13
2018-04-19T20:43:02.222Z,58.47
2018-04-19T20:45:31.373Z,58.43
2018-04-19T20:47:59.702Z,59.93
2018-04-19T20:50:28.804Z,56.50
2018-04-19T20:52:57.111Z,56.90
2018-04-19T20:55:25.442Z,49.97
2018-04-19T20:57:53.788Z,56.90
2018-04-19T21:00:23.194Z,53.00
2018-04-19T21:02:51.507Z,51.60
2018-04-19T21:05:19.842Z,51.90
2018-04-19T21:07:48.148Z,53.77
2018-04-19T21:10:16.618Z,55.43
2018-04-19T21:12:44.944Z,57.90
2018-04-19T21:15:13.345Z,49.10
2018-04-19T21:17:41.659Z,47.60
2018-04-19T21:20:09.992Z,52.63
2018-04-19T21:22:39.916Z,51.23
2018-04-19T21:25:08.242Z,47.97
2018-04-19T21:27:36.688Z,48.27
2018-04-19T21:30:05.787Z,51.70
2018-04-19T21:32:35.555Z,51.03
2018-04-19T21:35:03.887Z,47.57
2018-04-19T21:37:32.956Z,49.60
2018-04-19T21:40:01.300Z,49.70
2018-04-19T21:42:29.620Z,48.30
2018-04-19T21:44:57.957Z,47.00
2018-04-19T21:47:26.338Z,47.77
2018-04-19T21:49:55.397Z,46.10
2018-04-19T21:52:23.750Z,49.80
2018-04-19T21:54:52.078Z,51.67
2018-04-19T21:57:21.206Z,45.77
2018-04-19T21:59:50.380Z,48.80
2018-04-19T22:02:19.476Z,52.07
2018-04-19T22:04:48.557Z,51.50
2018-04-19T22:07:16.913Z,45.70
2018-04-19T22:09:45.250Z,50.00
2018-04-19T22:12:13.649Z,49.43
2018-04-19T22:14:42.014Z,52.17
2018-04-19T22:17:11.104Z,50.83
2018-04-19T22:19:40.194Z,50.37
2018-04-19T22:22:08.562Z,52.37
2018-04-19T22:24:38.482Z,51.33
2018-04-19T22:27:06.788Z,54.20
2018-04-19T22:29:35.908Z,51.47
2018-04-19T22:32:04.224Z,55.70
2018-04-19T22:34:32.559Z,50.47
2018-04-19T22:37:00.884Z,56.00
2018-04-19T22:39:29.210Z,52.37
2018-04-19T22:41:58.394Z,53.37
2018-04-19T22:44:26.724Z,59.57
2018-04-19T22:46:55.327Z,55.23
2018-04-19T22:49:23.675Z,62.23
2018-04-19T22:51:52.806Z,54.97
2018-04-19T22:54:21.133Z,54.33
2018-04-19T22:56:49.450Z,55.00
2018-04-19T22:59:17.763Z,56.40
2018-04-19T23:01:46.100Z,52.20
2018-04-19T23:04:15.311Z,51.50
2018-04-19T23:06:43.633Z,52.73
2018-04-19T23:09:11.950Z,57.70
2018-04-19T23:11:40.304Z,54.23
2018-04-19T23:14:08.660Z,50.53
2018-04-19T23:16:36.966Z,54.30
2018-04-19T23:19:05.288Z,53.73
2018-04-19T23:21:34.376Z,51.93
2018-04-19T23:24:02.688Z,53.60
2018-04-19T23:26:31.076Z,54.40
2018-04-19T23:29:00.152Z,55.90
2018-04-19T23:31:29.251Z,55.20
2018-04-19T23:33:58.362Z,52.90
2018-04-19T23:36:26.683Z,54.47
2018-04-19T23:38:55.014Z,51.27
2018-04-19T23:41:24.128Z,55.70
2018-04-19T23:43:52.439Z,53.70
2018-04-19T23:46:20.778Z,52.53
2018-04-19T23:48:49.868Z,59.97
2018-04-19T23:51:19.155Z,54.30
2018-04-19T23:53:47.613Z,55.80
2018-04-19T23:56:15.950Z,56.67
2018-04-19T23:58:45.195Z,53.43
